Time;durP1;ratioP1;P1;durP2;ratioP2;P2;SDS_P1;SDS_P2;PMS_P1;PMS_P2;Temp;Humidity;BMP_temperature;BMP_pressure;BME280_temperature;BME280_humidity;BME280_pressure;Samples;Min_cycle;Max_cycle;Signal;HPM_P1;HPM_P2
2022/04/24 00:01:04;;;;;;;20.08;12.52;;;;;;;13.09;47.92;100498.28;5158703;28;20428;-52
2022/04/24 00:03:37;;;;;;;17.58;12.27;;;;;;;13.55;47.86;100572.63;5164955;28;20730;-54
2022/04/24 00:06:10;;;;;;;14.00;12.00;;;;;;;13.50;48.44;100567.00;5165180;28;20409;-52
2022/04/24 00:08:43;;;;;;;15.32;11.95;;;;;;;13.47;48.14;100573.53;5163913;28;20417;-52
2022/04/24 00:11:16;;;;;;;17.63;12.45;;;;;;;13.40;48.08;100571.72;5165915;28;20812;-41
2022/04/24 00:13:48;;;;;;;14.73;12.52;;;;;;;13.34;48.45;100563.47;5159771;28;20476;-53
2022/04/24 00:16:21;;;;;;;15.02;12.60;;;;;;;13.37;48.40;100578.19;5165485;28;20428;-53
2022/04/24 00:18:53;;;;;;;15.43;12.52;;;;;;;13.25;48.47;100563.69;5162867;28;20445;-51
2022/04/24 00:21:27;;;;;;;13.77;11.80;;;;;;;13.32;48.62;100577.91;5164180;28;20416;-49
2022/04/24 00:24:00;;;;;;;15.20;12.75;;;;;;;13.21;48.75;100568.47;5164409;28;20909;-53
2022/04/24 00:26:41;;;;;;;15.98;11.80;;;;;;;13.29;48.90;100571.13;5162794;28;20975;-49
2022/04/24 00:29:14;;;;;;;16.77;12.33;;;;;;;13.28;48.94;100572.09;5163466;28;20979;-52
2022/04/24 00:31:46;;;;;;;16.80;12.27;;;;;;;13.25;48.94;100575.09;5160596;28;20495;-50
2022/04/24 00:34:19;;;;;;;14.52;12.05;;;;;;;13.26;48.95;100578.59;5162624;28;20421;-50
2022/04/24 00:36:53;;;;;;;17.88;13.32;;;;;;;13.21;49.14;100565.81;5165189;28;20413;-52
2022/04/24 00:39:25;;;;;;;15.85;12.57;;;;;;;13.13;49.15;100558.75;5160174;28;20858;-52
2022/04/24 00:41:57;;;;;;;16.40;13.10;;;;;;;13.19;49.50;100567.00;5161542;28;20442;-52
2022/04/24 00:44:33;;;;;;;16.42;12.82;;;;;;;13.14;49.44;100564.88;5163676;28;20515;-58
2022/04/24 00:47:12;;;;;;;15.88;12.60;;;;;;;13.10;49.47;100564.41;5164055;28;22431;-52
2022/04/24 00:49:46;;;;;;;17.70;13.77;;;;;;;13.07;49.54;100563.91;5160079;28;20437;-55
2022/04/24 00:52:20;;;;;;;17.00;12.83;;;;;;;13.04;49.70;100559.78;5161457;28;20438;-54
2022/04/24 00:54:53;;;;;;;15.88;12.57;;;;;;;12.99;49.71;100561.28;5160684;28;20495;-52
2022/04/24 00:57:27;;;;;;;15.77;12.18;;;;;;;12.97;49.89;100576.53;5165356;28;20420;-53
2022/04/24 01:00:00;;;;;;;14.85;12.90;;;;;;;12.83;50.07;100554.25;5161791;28;20440;-51
2022/04/24 01:02:32;;;;;;;17.00;12.30;;;;;;;12.90;50.17;100563.16;5163953;28;20421;-50
2022/04/24 01:05:06;;;;;;;16.00;12.40;;;;;;;12.87;50.51;100572.25;5162281;28;20900;-53
2022/04/24 01:07:40;;;;;;;14.93;11.50;;;;;;;12.83;50.26;100581.56;5163242;28;20401;-53
2022/04/24 01:10:13;;;;;;;14.13;12.13;;;;;;;12.75;50.43;100556.91;5164284;28;20770;-49
2022/04/24 01:12:45;;;;;;;18.55;12.98;;;;;;;12.73;50.52;100566.84;5161573;28;21880;-49
2022/04/24 01:15:18;;;;;;;17.20;11.65;;;;;;;12.64;50.47;100561.59;5160922;28;20445;-49
2022/04/24 01:17:51;;;;;;;15.05;12.00;;;;;;;12.64;50.38;100560.75;5158171;28;20421;-53
2022/04/24 01:20:25;;;;;;;17.73;12.18;;;;;;;12.64;50.61;100588.06;5161679;28;20460;-50
2022/04/24 01:22:59;;;;;;;14.02;11.77;;;;;;;12.57;50.58;100571.19;5161301;28;20412;-49
2022/04/24 01:25:31;;;;;;;19.50;11.20;;;;;;;11.87;50.63;100462.44;5161851;28;20496;-49
2022/04/24 01:28:09;;;;;;;14.27;11.88;;;;;;;12.58;50.86;100572.03;5163383;28;20538;-51
2022/04/24 01:30:41;;;;;;;13.98;10.63;;;;;;;12.36;50.82;100550.56;5165218;28;20749;-53
2022/04/24 01:33:13;;;;;;;13.88;11.55;;;;;;;12.50;50.82;100569.41;5160801;28;20926;-53
2022/04/24 01:35:47;;;;;;;17.20;11.80;;;;;;;12.43;50.95;100563.94;5158804;28;20408;-47
2022/04/24 01:38:20;;;;;;;14.35;11.30;;;;;;;12.45;51.06;100573.38;5160649;28;20420;-53
2022/04/24 01:40:52;;;;;;;15.68;11.48;;;;;;;12.43;51.03;100574.53;5162747;28;20492;-53
2022/04/24 01:43:24;;;;;;;11.82;9.45;;;;;;;12.41;51.13;100572.03;5165845;28;20452;-51
2022/04/24 01:45:57;;;;;;;13.57;9.77;;;;;;;12.41;51.10;100572.03;5161225;28;20905;-53
2022/04/24 01:48:29;;;;;;;14.40;9.95;;;;;;;12.40;51.14;100578.34;5161476;28;20796;-47
2022/04/24 01:51:04;;;;;;;16.88;11.90;;;;;;;12.36;51.23;100577.03;5162838;28;20451;-52
2022/04/24 01:53:37;;;;;;;14.75;10.70;;;;;;;12.04;51.37;100537.34;5160556;28;20499;-53
2022/04/24 01:56:10;;;;;;;15.13;10.68;;;;;;;12.34;51.37;100584.31;5157094;28;20412;-51
2022/04/24 01:58:43;;;;;;;12.65;10.13;;;;;;;12.34;51.20;100581.66;5160505;28;20437;-53
2022/04/24 02:01:15;;;;;;;16.50;9.82;;;;;;;12.34;51.22;100580.84;5160719;28;20739;-50
2022/04/24 02:03:47;;;;;;;14.85;10.40;;;;;;;12.12;51.22;100538.19;5148317;28;20464;-54
2022/04/24 02:06:21;;;;;;;11.90;10.30;;;;;;;12.26;51.21;100572.91;5157417;28;20842;-49
2022/04/24 02:08:53;;;;;;;15.15;9.45;;;;;;;12.35;51.31;100593.91;5158865;28;20785;-49
2022/04/24 02:11:26;;;;;;;12.82;10.20;;;;;;;12.26;51.21;100572.91;5162227;28;20428;-52
2022/04/24 02:14:01;;;;;;;11.27;9.82;;;;;;;12.29;51.35;100589.28;5159879;28;20523;-54
2022/04/24 02:16:34;;;;;;;12.50;10.40;;;;;;;12.25;51.49;100598.56;5165956;28;20457;-49
2022/04/24 02:19:06;;;;;;;17.27;10.75;;;;;;;12.19;51.36;100578.03;5161752;28;20578;-54
2022/04/24 02:21:40;;;;;;;12.88;10.30;;;;;;;12.18;51.71;100571.91;5160226;28;20507;-52
2022/04/24 02:24:12;;;;;;;14.35;8.98;;;;;;;12.16;51.61;100573.06;5161054;28;20439;-51
2022/04/24 02:26:45;;;;;;;13.07;9.32;;;;;;;12.17;51.56;100580.00;5160594;28;20427;-50
2022/04/24 02:29:17;;;;;;;12.60;9.48;;;;;;;12.14;51.68;100575.91;5158829;28;20497;-52
2022/04/24 02:31:50;;;;;;;13.77;8.77;;;;;;;12.12;51.64;100585.81;5159517;28;20503;-54
2022/04/24 02:34:22;;;;;;;11.90;8.55;;;;;;;12.12;51.59;100585.00;5160219;28;20940;-50
2022/04/24 02:36:56;;;;;;;10.10;8.23;;;;;;;12.09;51.58;100577.41;5159887;28;20428;-50
2022/04/24 02:39:29;;;;;;;11.38;9.13;;;;;;;12.07;51.70;100579.38;5160903;28;20531;-54
2022/04/24 02:42:01;;;;;;;12.30;9.13;;;;;;;11.95;51.69;100571.78;5161617;28;21032;-58
2022/04/24 02:44:34;;;;;;;11.03;8.63;;;;;;;12.03;51.76;100583.34;5160766;28;20512;-54
2022/04/24 02:47:07;;;;;;;16.90;8.38;;;;;;;11.97;51.59;100580.34;5162361;28;20417;-51
2022/04/24 02:49:40;;;;;;;12.30;8.60;;;;;;;12.02;51.58;100587.81;5160348;28;20918;-51
2022/04/24 02:52:14;;;;;;;14.35;9.02;;;;;;;11.98;51.80;100584.69;5164418;28;20754;-51
2022/04/24 02:54:46;;;;;;;13.65;8.95;;;;;;;11.98;51.79;100582.03;5158875;28;20484;-50
2022/04/24 02:57:19;;;;;;;17.00;8.60;;;;;;;11.92;51.72;100572.09;5158391;28;20425;-52
2022/04/24 02:59:52;;;;;;;12.63;9.25;;;;;;;11.94;52.10;100578.03;5157913;28;20793;-51
2022/04/24 03:02:24;;;;;;;12.90;9.00;;;;;;;11.77;52.02;100552.56;5158706;28;20568;-50
2022/04/24 03:04:57;;;;;;;12.23;8.43;;;;;;;11.92;52.00;100572.09;5158471;28;20417;-51
2022/04/24 03:07:30;;;;;;;11.30;8.15;;;;;;;11.91;51.86;100574.91;5161000;28;20416;-50
2022/04/24 03:10:03;;;;;;;12.27;8.07;;;;;;;11.86;51.97;100570.13;5161654;28;20531;-50
2022/04/24 03:12:35;;;;;;;13.23;9.02;;;;;;;11.85;52.07;100571.09;5163035;28;20592;-52
2022/04/24 03:15:10;;;;;;;11.32;8.82;;;;;;;11.86;52.07;100571.91;5161681;28;20456;-53
2022/04/24 03:17:42;;;;;;;10.02;8.23;;;;;;;11.77;52.09;100566.59;5159696;28;20417;-53
2022/04/24 03:20:15;;;;;;;13.48;8.93;;;;;;;11.81;52.04;100568.91;5156760;28;20416;-55
2022/04/24 03:22:49;;;;;;;13.60;8.20;;;;;;;11.70;52.02;100556.81;5160723;28;20421;-55
2022/04/24 03:25:21;;;;;;;11.88;8.40;;;;;;;11.78;52.22;100570.88;5160462;28;20511;-51
2022/04/24 03:27:55;;;;;;;11.95;8.50;;;;;;;11.64;52.14;100549.53;5160415;28;21030;-56
2022/04/24 03:30:27;;;;;;;12.18;8.75;;;;;;;11.74;52.28;100574.03;5157878;28;20448;-51
2022/04/24 03:33:00;;;;;;;11.27;8.73;;;;;;;11.59;52.29;100552.69;5158420;28;20508;-51
2022/04/24 03:35:32;;;;;;;14.13;9.00;;;;;;;11.67;52.40;100565.91;5157787;28;20500;-53
2022/04/24 03:38:06;;;;;;;12.07;8.73;;;;;;;11.71;52.18;100563.78;5167377;28;20504;-54
2022/04/24 03:40:39;;;;;;;11.15;7.93;;;;;;;11.70;52.38;100562.13;5164866;28;20413;-52
2022/04/24 03:43:11;;;;;;;9.27;8.38;;;;;;;11.61;52.30;100552.50;5165000;28;20413;-50
2022/04/24 03:45:43;;;;;;;9.10;8.07;;;;;;;11.62;52.27;100581.47;5166998;28;20420;-52
2022/04/24 03:48:16;;;;;;;12.68;8.13;;;;;;;11.45;52.55;100534.81;5160105;28;20520;-51
2022/04/24 03:50:48;;;;;;;12.37;7.93;;;;;;;11.65;52.45;100570.56;5162774;28;20939;-51
2022/04/24 03:53:22;;;;;;;12.20;8.10;;;;;;;11.62;52.52;100570.88;5165743;28;20585;-51
2022/04/24 03:55:55;;;;;;;10.77;8.02;;;;;;;11.59;52.46;100568.56;5163281;28;20436;-50
2022/04/24 03:58:27;;;;;;;15.00;8.70;;;;;;;11.65;52.33;100575.84;5163335;28;20440;-53
2022/04/24 04:00:59;;;;;;;11.43;8.63;;;;;;;11.62;52.66;100570.88;5162940;28;20467;-49
2022/04/24 04:03:32;;;;;;;11.65;8.10;;;;;;;11.54;52.56;100574.31;5164854;28;20792;-47
2022/04/24 04:06:04;;;;;;;10.77;8.80;;;;;;;11.49;52.59;100566.06;5169165;28;20417;-49
2022/04/24 04:08:38;;;;;;;10.48;8.20;;;;;;;11.44;52.66;100562.25;5165605;28;20865;-52
2022/04/24 04:11:10;;;;;;;10.98;7.93;;;;;;;11.39;52.82;100562.72;5164385;28;20425;-48
2022/04/24 04:13:43;;;;;;;10.88;9.05;;;;;;;11.46;52.93;100586.72;5163724;28;20412;-51
2022/04/24 04:16:15;;;;;;;12.47;9.23;;;;;;;10.96;52.97;100514.38;5133992;28;20444;-51
2022/04/24 04:18:48;;;;;;;11.60;8.45;;;;;;;11.20;53.13;100558.53;5162629;28;20890;-51
2022/04/24 04:21:22;;;;;;;12.05;8.60;;;;;;;11.33;53.09;100603.03;5163740;28;20438;-52
2022/04/24 04:23:56;;;;;;;9.82;7.82;;;;;;;11.28;53.29;100594.75;5162696;28;20424;-49
2022/04/24 04:26:28;;;;;;;11.10;7.80;;;;;;;11.32;53.27;100590.81;5162821;28;20425;-48
2022/04/24 04:29:01;;;;;;;9.02;7.40;;;;;;;11.32;53.07;100590.81;5163462;28;20423;-54
2022/04/24 04:31:33;;;;;;;12.52;7.88;;;;;;;11.29;53.21;100591.94;5162004;28;20923;-51
2022/04/24 04:34:05;;;;;;;11.07;7.53;;;;;;;11.24;53.18;100593.41;5162865;28;20933;-51
2022/04/24 04:36:38;;;;;;;13.98;7.63;;;;;;;11.24;53.30;100593.41;5164353;28;20411;-49
2022/04/24 04:39:11;;;;;;;12.98;8.70;;;;;;;11.20;53.35;100597.38;5167565;28;20484;-51
2022/04/24 04:41:44;;;;;;;10.32;7.80;;;;;;;11.19;53.47;100598.38;5163157;28;20404;-52
2022/04/24 04:44:16;;;;;;;14.03;7.90;;;;;;;11.20;53.43;100602.66;5162950;28;20986;-49
2022/04/24 04:46:48;;;;;;;9.40;7.85;;;;;;;11.17;53.51;100603.78;5161282;28;20401;-52
2022/04/24 04:49:21;;;;;;;10.98;8.32;;;;;;;11.19;53.42;100607.13;5163172;28;20429;-53
2022/04/24 04:51:53;;;;;;;10.68;7.95;;;;;;;11.21;53.34;100609.59;5166791;28;20424;-53
2022/04/24 04:54:27;;;;;;;11.05;8.85;;;;;;;11.22;53.41;100612.09;5161076;28;20420;-52
2022/04/24 04:56:59;;;;;;;11.05;7.78;;;;;;;10.97;53.38;100579.44;5161314;28;20530;-54
2022/04/24 04:59:31;;;;;;;11.20;7.43;;;;;;;11.21;53.30;100606.94;5162447;28;20436;-53
2022/04/24 05:02:05;;;;;;;11.18;7.53;;;;;;;11.21;53.48;100617.53;5161002;28;20439;-51
2022/04/24 05:04:38;;;;;;;11.07;7.47;;;;;;;11.21;53.24;100625.44;5162613;28;20519;-49
2022/04/24 05:07:11;;;;;;;12.05;7.38;;;;;;;11.22;53.34;100624.47;5162741;28;20420;-54
2022/04/24 05:09:45;;;;;;;10.13;7.30;;;;;;;11.21;53.25;100630.72;5161190;28;20428;-51
2022/04/24 05:12:18;;;;;;;9.57;7.93;;;;;;;11.24;53.46;100628.63;5159872;28;20841;-52
2022/04/24 05:14:50;;;;;;;11.38;7.90;;;;;;;11.27;53.29;100638.03;5160425;28;21396;-54
2022/04/24 05:17:23;;;;;;;9.07;7.65;;;;;;;11.27;53.36;100632.75;5162279;28;20520;-54
2022/04/24 05:19:55;;;;;;;9.35;7.00;;;;;;;11.31;53.15;100634.09;5162071;28;21114;-53
2022/04/24 05:22:28;;;;;;;9.73;7.40;;;;;;;11.30;53.27;100635.06;5149475;28;21007;-52
2022/04/24 05:25:02;;;;;;;9.15;7.43;;;;;;;11.25;53.38;100632.09;5147187;28;20436;-50
2022/04/24 05:27:36;;;;;;;10.70;7.03;;;;;;;11.29;53.10;100649.28;5153810;28;20477;-50
2022/04/24 05:30:11;;;;;;;9.23;7.72;;;;;;;11.34;53.23;100657.59;5167585;28;20793;-52
2022/04/24 05:32:47;;;;;;;12.48;7.72;;;;;;;11.34;53.16;100652.28;5172018;28;20412;-50
2022/04/24 05:35:19;;;;;;;9.48;7.07;;;;;;;11.17;53.00;100621.47;5177128;28;20427;-52
2022/04/24 05:37:52;;;;;;;9.13;7.20;;;;;;;11.41;53.22;100663.06;5174395;28;20473;-51
2022/04/24 05:40:26;;;;;;;9.80;7.55;;;;;;;11.42;53.25;100646.19;5179012;28;20843;-53
2022/04/24 05:42:59;;;;;;;8.30;6.95;;;;;;;11.39;53.07;100642.03;5178512;28;20431;-52
2022/04/24 05:45:34;;;;;;;10.10;7.10;;;;;;;11.47;52.97;100655.31;5180121;28;20884;-52
2022/04/24 05:48:08;;;;;;;9.15;7.03;;;;;;;11.48;52.82;100645.56;5181729;28;23694;-51
2022/04/24 05:50:40;;;;;;;14.33;7.60;;;;;;;11.57;52.81;100652.53;5177208;28;20459;-51
2022/04/24 05:53:13;;;;;;;12.73;8.07;;;;;;;11.61;52.70;100645.09;5181137;28;20450;-52
2022/04/24 05:55:47;;;;;;;12.68;8.20;;;;;;;12.31;52.07;100661.44;5175630;28;20467;-52
2022/04/24 05:58:19;;;;;;;9.05;7.13;;;;;;;13.40;51.09;100653.97;5173228;28;20912;-52
2022/04/24 06:00:52;;;;;;;8.50;6.43;;;;;;;14.48;50.18;100659.22;5177377;28;20989;-51
2022/04/24 06:03:24;;;;;;;10.27;6.13;;;;;;;15.49;48.89;100641.88;5178797;28;20430;-55
2022/04/24 06:05:57;;;;;;;8.57;5.90;;;;;;;15.74;48.12;100589.13;5183448;28;20442;-54
2022/04/24 06:08:29;;;;;;;8.57;5.85;;;;;;;16.87;47.32;100647.88;5181697;28;20430;-55
2022/04/24 06:11:03;;;;;;;9.25;5.80;;;;;;;17.37;46.61;100673.38;5182247;28;20415;-55
2022/04/24 06:13:36;;;;;;;7.80;5.55;;;;;;;17.66;46.08;100658.13;5178951;28;20414;-57
2022/04/24 06:16:08;;;;;;;7.57;5.43;;;;;;;17.96;45.54;100663.94;5180751;28;20891;-57
2022/04/24 06:18:41;;;;;;;8.68;5.75;;;;;;;18.17;45.22;100660.28;5178196;28;20407;-57
2022/04/24 06:21:13;;;;;;;9.95;5.90;;;;;;;18.33;44.52;100659.88;5179108;28;20506;-54
2022/04/24 06:23:45;;;;;;;7.88;5.45;;;;;;;18.93;44.10;100659.06;5181387;28;20510;-59
2022/04/24 06:26:19;;;;;;;6.07;5.03;;;;;;;19.29;43.24;100659.38;5178757;28;20903;-57
2022/04/24 06:28:52;;;;;;;7.20;6.05;;;;;;;19.04;43.29;100661.09;5183897;28;20410;-58
2022/04/24 06:31:24;;;;;;;5.88;5.18;;;;;;;18.88;43.38;100660.50;5179896;28;20514;-58
2022/04/24 06:33:56;;;;;;;8.00;5.53;;;;;;;18.88;43.04;100657.84;5182465;28;20551;-57
2022/04/24 06:36:29;;;;;;;7.75;5.07;;;;;;;19.04;42.61;100661.09;5181344;28;20998;-58
2022/04/24 06:39:01;;;;;;;8.52;5.50;;;;;;;19.07;42.41;100666.03;5182950;28;20427;-59
2022/04/24 06:41:35;;;;;;;6.45;5.47;;;;;;;19.27;41.92;100650.75;5179848;28;20484;-59
2022/04/24 06:44:07;;;;;;;9.85;5.45;;;;;;;19.61;41.40;100672.84;5180716;28;20411;-59
2022/04/24 06:46:43;;;;;;;6.72;5.20;;;;;;;20.03;40.99;100674.06;5186508;28;20502;-57
2022/04/24 06:49:16;;;;;;;9.55;5.40;;;;;;;20.03;40.55;100649.13;5196130;28;20513;-59
2022/04/24 06:51:48;;;;;;;8.30;4.80;;;;;;;20.48;40.24;100663.22;5187381;28;20498;-56
2022/04/24 06:54:20;;;;;;;6.97;5.18;;;;;;;20.53;39.91;100670.63;5187184;28;20502;-58
2022/04/24 06:56:54;;;;;;;8.93;5.60;;;;;;;20.24;40.14;100672.91;5184427;28;20439;-58
2022/04/24 06:59:26;;;;;;;7.13;5.60;;;;;;;19.55;40.72;100668.34;5186593;28;20547;-58
2022/04/24 07:01:59;;;;;;;7.88;5.20;;;;;;;18.88;41.24;100667.72;5183810;28;20985;-58
2022/04/24 07:04:31;;;;;;;8.20;5.38;;;;;;;18.81;41.16;100674.94;5184918;28;20496;-61
2022/04/24 07:07:04;;;;;;;8.30;5.50;;;;;;;18.41;41.34;100689.09;5184753;28;20421;-57
2022/04/24 07:09:36;;;;;;;6.90;5.60;;;;;;;17.64;41.85;100685.00;5184324;28;20910;-52
2022/04/24 07:12:11;;;;;;;7.97;5.78;;;;;;;17.44;42.02;100682.28;5189830;28;20411;-56
2022/04/24 07:14:44;;;;;;;9.97;6.30;;;;;;;17.28;42.11;100693.25;5189041;28;20445;-54
2022/04/24 07:17:18;;;;;;;6.83;5.70;;;;;;;17.31;42.14;100692.84;5188386;28;20409;-58
2022/04/24 07:19:50;;;;;;;9.60;6.10;;;;;;;17.11;42.24;100691.94;5184772;28;20791;-56
2022/04/24 07:22:22;;;;;;;8.60;6.00;;;;;;;17.12;42.08;100694.41;5190876;28;20932;-57
2022/04/24 07:24:55;;;;;;;7.27;5.13;;;;;;;17.07;42.02;100670.16;5188721;28;20407;-58
2022/04/24 07:27:31;;;;;;;7.70;5.23;;;;;;;17.23;41.88;100690.38;5188279;28;20449;-57
2022/04/24 07:30:04;;;;;;;5.95;5.30;;;;;;;17.25;41.83;100691.81;5189518;28;20407;-57
2022/04/24 07:32:39;;;;;;;9.20;5.85;;;;;;;17.04;42.18;100690.06;5186222;28;20434;-55
2022/04/24 07:35:14;;;;;;;7.05;5.80;;;;;;;16.90;42.21;100687.50;5188163;28;20406;-55
2022/04/24 07:37:47;;;;;;;8.25;6.10;;;;;;;16.80;42.43;100686.00;5188418;28;20879;-55
2022/04/24 07:40:22;;;;;;;6.15;5.22;;;;;;;17.23;42.09;100695.72;5183998;28;20444;-58
2022/04/24 07:43:02;;;;;;;7.82;5.18;;;;;;;17.83;41.45;100701.34;5186719;28;20430;-56
2022/04/24 07:45:37;;;;;;;7.22;5.22;;;;;;;18.52;40.80;100702.88;5188919;28;20415;-58
2022/04/24 07:48:11;;;;;;;7.68;5.32;;;;;;;18.18;40.97;100689.50;5188564;28;20417;-57
2022/04/24 07:50:45;;;;;;;13.05;5.30;;;;;;;18.05;41.21;100715.38;5187374;28;20511;-57
2022/04/24 07:53:19;;;;;;;8.47;5.40;;;;;;;17.37;41.65;100680.56;5183376;28;20405;-55
2022/04/24 07:55:57;;;;;;;7.75;5.65;;;;;;;17.10;41.96;100691.13;5166165;28;20777;-58
2022/04/24 07:58:32;;;;;;;7.35;5.78;;;;;;;17.19;41.90;100703.28;5168038;28;20508;-56
2022/04/24 08:01:05;;;;;;;7.97;5.40;;;;;;;17.25;41.85;100689.16;5167457;28;20889;-56
2022/04/24 08:03:37;;;;;;;6.35;5.00;;;;;;;17.54;41.79;100708.59;5167367;28;24997;-55
2022/04/24 08:06:10;;;;;;;7.38;5.50;;;;;;;17.63;41.91;100711.94;5167084;28;20446;-56
2022/04/24 08:08:42;;;;;;;8.55;5.72;;;;;;;17.79;41.70;100711.59;5167226;28;20434;-56
2022/04/24 08:11:14;;;;;;;9.10;5.57;;;;;;;17.68;41.68;100698.78;5170571;28;20832;-57
2022/04/24 08:13:48;;;;;;;8.32;5.28;;;;;;;17.70;41.72;100713.59;5166457;28;20491;-56
2022/04/24 08:16:24;;;;;;;7.07;4.85;;;;;;;17.77;41.67;100718.97;5165202;28;20495;-58
2022/04/24 08:18:59;;;;;;;10.63;5.65;;;;;;;18.07;41.63;100707.97;5167215;28;20462;-60
2022/04/24 08:21:34;;;;;;;7.30;4.78;;;;;;;18.32;41.37;100711.72;5168606;28;20472;-58
2022/04/24 08:24:06;;;;;;;8.40;5.15;;;;;;;18.48;41.37;100725.72;5170612;28;20432;-58
2022/04/24 08:26:39;;;;;;;9.38;4.70;;;;;;;18.34;41.45;100709.69;5170722;28;20484;-60
2022/04/24 08:29:12;;;;;;;9.02;4.97;;;;;;;18.30;41.45;100723.63;5170290;28;20915;-57
2022/04/24 08:31:45;;;;;;;6.10;4.80;;;;;;;18.50;41.43;100723.69;5169386;28;20425;-59
2022/04/24 08:34:17;;;;;;;6.57;5.00;;;;;;;18.66;41.30;100716.06;5184282;28;20496;-59
2022/04/24 08:36:50;;;;;;;7.27;5.47;;;;;;;18.91;41.01;100715.47;5166862;28;20496;-59
2022/04/24 08:39:22;;;;;;;6.07;4.85;;;;;;;18.61;41.30;100712.34;5169261;28;20432;-60
2022/04/24 08:41:54;;;;;;;8.05;5.00;;;;;;;18.17;41.71;100730.59;5168348;28;20491;-60
2022/04/24 08:44:29;;;;;;;8.20;5.72;;;;;;;17.86;42.09;100723.13;5181513;28;20411;-59
2022/04/24 08:47:02;;;;;;;9.32;5.72;;;;;;;17.55;42.10;100720.09;5168809;28;20520;-58
2022/04/24 08:49:35;;;;;;;7.27;5.30;;;;;;;17.36;42.16;100714.47;5170366;28;20473;-53
2022/04/24 08:52:09;;;;;;;8.05;5.38;;;;;;;17.13;42.40;100732.59;5184958;28;20524;-57
2022/04/24 08:54:43;;;;;;;11.85;5.20;;;;;;;17.04;42.40;100714.06;5192203;28;20459;-57
2022/04/24 08:57:15;;;;;;;9.55;5.28;;;;;;;17.07;42.18;100714.72;5189377;28;20427;-59
2022/04/24 08:59:49;;;;;;;9.18;5.57;;;;;;;17.20;42.01;100723.59;5202554;28;20488;-53
2022/04/24 09:02:22;;;;;;;8.27;5.97;;;;;;;16.94;41.99;100734.94;5210599;28;20417;-52
2022/04/24 09:04:55;;;;;;;10.75;6.47;;;;;;;16.54;42.43;100733.75;5210507;28;20575;-58
2022/04/24 09:07:32;;;;;;;7.43;5.30;;;;;;;16.41;42.40;100734.44;5209533;28;20915;-56
2022/04/24 09:10:09;;;;;;;10.43;5.75;;;;;;;16.19;42.49;100732.78;5187352;28;20600;-56
2022/04/24 09:12:41;;;;;;;10.50;6.07;;;;;;;16.06;42.65;100734.28;5184886;28;20458;-56
2022/04/24 09:15:18;;;;;;;8.95;5.47;;;;;;;15.89;42.79;100735.53;5187514;28;20550;-56
2022/04/24 09:18:01;;;;;;;8.20;6.35;;;;;;;15.85;42.92;100736.91;5184476;28;20407;-52
2022/04/24 09:20:41;;;;;;;11.18;6.82;;;;;;;15.86;42.76;100735.91;5188351;28;20493;-53
2022/04/24 09:23:13;;;;;;;10.98;6.30;;;;;;;15.91;42.86;100738.81;5188624;28;20442;-55
2022/04/24 09:25:46;;;;;;;8.95;5.32;;;;;;;16.02;42.66;100743.69;5188579;28;20407;-52
2022/04/24 09:28:18;;;;;;;10.05;5.75;;;;;;;16.18;42.58;100739.13;5184998;28;20414;-51
2022/04/24 09:30:52;;;;;;;8.13;6.00;;;;;;;16.13;42.60;100737.88;5188265;28;20425;-51
2022/04/24 09:33:24;;;;;;;10.60;6.30;;;;;;;16.10;42.73;100748.06;5193327;28;20883;-54
2022/04/24 09:35:56;;;;;;;9.23;5.78;;;;;;;16.19;42.61;100759.44;5187197;28;20418;-54
2022/04/24 09:38:29;;;;;;;10.43;6.72;;;;;;;16.40;42.49;100748.78;5187676;28;20887;-56
2022/04/24 09:41:01;;;;;;;9.45;5.85;;;;;;;16.44;42.51;100752.72;5187300;28;20469;-53
2022/04/24 09:43:42;;;;;;;9.70;6.95;;;;;;;16.54;42.30;100745.25;5184008;28;20894;-50
2022/04/24 09:46:26;;;;;;;9.98;7.00;;;;;;;16.57;42.45;100734.19;5186132;28;20492;-52
2022/04/24 09:49:02;;;;;;;14.18;6.47;;;;;;;16.70;42.35;100738.00;5185560;28;20486;-52
2022/04/24 09:51:42;;;;;;;11.63;6.78;;;;;;;16.79;42.34;100752.88;5188044;28;20415;-55
2022/04/24 09:54:15;;;;;;;11.40;7.90;;;;;;;16.81;42.36;100756.16;5186678;28;20415;-54
2022/04/24 09:56:52;;;;;;;10.32;7.20;;;;;;;16.70;42.44;100756.66;5184038;28;20479;-53
2022/04/24 09:59:26;;;;;;;11.00;7.03;;;;;;;16.63;42.29;100753.09;5178174;28;20827;-54
2022/04/24 10:02:00;;;;;;;11.40;7.05;;;;;;;16.65;42.39;100757.22;5186357;28;20497;-54
2022/04/24 10:04:36;;;;;;;9.63;7.60;;;;;;;16.66;42.39;100752.72;5183754;28;20430;-53
2022/04/24 10:07:11;;;;;;;9.85;7.30;;;;;;;16.57;42.50;100755.53;5183112;28;20466;-53
2022/04/24 10:09:45;;;;;;;10.82;6.97;;;;;;;16.45;42.51;100754.38;5186264;28;20629;-51
2022/04/24 10:12:20;;;;;;;9.88;6.72;;;;;;;16.49;42.58;100768.16;5185124;28;21390;-46
2022/04/24 10:14:57;;;;;;;11.23;6.95;;;;;;;16.35;42.61;100757.38;5184759;28;20502;-52
2022/04/24 10:17:57;;;;;;;9.13;6.90;;;;;;;16.44;42.45;100749.22;5164767;28;20414;-56
2022/04/24 10:20:48;;;;;;;12.52;6.85;;;;;;;16.61;42.43;100758.63;5161091;28;20772;-53
2022/04/24 10:23:33;;;;;;;8.40;6.50;;;;;;;16.63;42.34;100779.75;5168190;28;20563;-53
2022/04/24 10:26:17;;;;;;;7.03;5.82;;;;;;;16.45;42.19;100727.72;5171728;28;20433;-53
2022/04/24 10:29:01;;;;;;;11.65;7.03;;;;;;;16.90;41.91;100768.34;5170746;28;20417;-54
2022/04/24 10:31:43;;;;;;;9.07;6.00;;;;;;;16.89;41.89;100749.88;5180283;28;20512;-53
2022/04/24 10:34:19;;;;;;;12.55;6.10;;;;;;;16.91;41.73;100762.00;5175789;28;20455;-51
2022/04/24 10:36:59;;;;;;;9.63;5.57;;;;;;;17.01;41.73;100770.50;5167320;28;20423;-55
2022/04/24 10:39:33;;;;;;;9.95;5.70;;;;;;;16.99;41.52;100764.50;5172841;28;20496;-53
2022/04/24 10:42:12;;;;;;;8.05;5.05;;;;;;;16.93;41.36;100765.28;5182032;28;20862;-50
2022/04/24 10:44:52;;;;;;;7.75;4.57;;;;;;;17.05;41.28;100742.38;5185266;28;20417;-54
2022/04/24 10:47:25;;;;;;;6.53;4.18;;;;;;;17.37;40.90;100753.47;5183609;28;20925;-51
2022/04/24 10:50:08;;;;;;;5.72;3.85;;;;;;;17.55;40.90;100757.47;5181537;28;20429;-52
2022/04/24 10:52:41;;;;;;;5.25;3.80;;;;;;;17.45;40.68;100747.97;5182484;28;20431;-53
2022/04/24 10:55:15;;;;;;;7.93;3.15;;;;;;;17.56;40.43;100772.47;5177603;28;20493;-53
2022/04/24 10:57:57;;;;;;;6.47;3.40;;;;;;;17.49;40.23;100751.06;5159412;28;25944;-53
2022/04/24 11:00:34;;;;;;;3.03;2.72;;;;;;;17.48;40.04;100760.94;5163677;28;20497;-50
2022/04/24 11:03:11;;;;;;;4.93;3.28;;;;;;;17.50;39.90;100740.22;5182438;28;20423;-55
2022/04/24 11:05:47;;;;;;;5.90;2.78;;;;;;;17.63;39.44;100755.47;5182983;28;20410;-54
2022/04/24 11:08:21;;;;;;;3.65;2.75;;;;;;;17.73;39.40;100747.09;5181118;28;20773;-49
2022/04/24 11:11:04;;;;;;;5.45;2.95;;;;;;;17.67;39.05;100748.69;5182103;28;20821;-54
2022/04/24 11:13:38;;;;;;;4.93;2.90;;;;;;;17.58;39.10;100746.41;5184464;28;20429;-59
2022/04/24 11:16:13;;;;;;;4.43;2.65;;;;;;;17.44;39.10;100741.00;5187040;28;20533;-55
2022/04/24 11:18:48;;;;;;;4.33;2.57;;;;;;;17.52;38.85;100748.00;5163424;28;20484;-52
2022/04/24 11:21:23;;;;;;;4.20;2.40;;;;;;;17.63;38.64;100752.00;5181051;28;20453;-59
2022/04/24 11:24:00;;;;;;;3.70;2.70;;;;;;;17.66;38.44;100744.41;5187124;28;20415;-52
2022/04/24 11:26:32;;;;;;;5.75;2.60;;;;;;;17.56;38.33;100748.44;5183682;28;20423;-51
2022/04/24 11:29:10;;;;;;;5.95;2.58;;;;;;;17.60;38.10;100745.19;5184024;28;20425;-55
2022/04/24 11:31:49;;;;;;;4.28;2.80;;;;;;;17.68;37.74;100741.50;5183828;28;20806;-55
2022/04/24 11:34:23;;;;;;;9.25;2.50;;;;;;;17.71;37.48;100741.13;5175645;28;20395;-49
2022/04/24 11:37:00;;;;;;;6.15;3.10;;;;;;;17.75;37.41;100737.03;5178410;28;20427;-53
2022/04/24 11:39:33;;;;;;;3.88;2.53;;;;;;;17.81;37.01;100736.28;5170508;28;20918;-52
2022/04/24 11:42:06;;;;;;;5.30;2.55;;;;;;;17.88;36.99;100746.97;5183560;28;20902;-53
2022/04/24 11:50:18;;;;;;;7.28;3.15;;;;;;;17.88;36.97;100726.44;5180162;28;20414;-53
2022/04/24 11:52:52;;;;;;;5.30;3.00;;;;;;;17.92;37.01;100743.69;5182214;28;20784;-55
2022/04/24 11:56:01;;;;;;;4.45;2.53;;;;;;;17.67;36.89;100675.78;5180418;28;20418;-53